createdAt,value
2019-04-21T00:01:54.548Z,13.47
2019-04-21T00:04:34.519Z,12.70
2019-04-21T00:07:11.746Z,13.67
2019-04-21T00:09:50.239Z,11.67
2019-04-21T00:12:07.461Z,12.87
2019-04-21T00:14:30.276Z,12.30
2019-04-21T00:16:56.115Z,11.57
2019-04-21T00:19:36.662Z,12.83
2019-04-21T00:22:16.148Z,12.87
2019-04-21T00:24:44.439Z,12.60
2019-04-21T00:27:21.393Z,12.97
2019-04-21T00:29:47.893Z,13.77
2019-04-21T00:32:13.618Z,13.17
2019-04-21T00:34:30.173Z,12.97
2019-04-21T00:37:09.434Z,13.67
2019-04-21T00:42:14.613Z,13.90
2019-04-21T00:44:38.126Z,14.90
2019-04-21T00:47:13.980Z,14.40
2019-04-21T00:49:54.244Z,14.80
2019-04-21T00:52:48.842Z,15.77
2019-04-21T00:57:42.728Z,15.10
2019-04-21T01:00:07.879Z,14.60
2019-04-21T01:02:43.677Z,14.50
2019-04-21T01:05:15.438Z,14.40
2019-04-21T01:07:38.573Z,14.70
2019-04-21T01:09:58.344Z,13.60
2019-04-21T01:12:37.347Z,13.93
2019-04-21T01:15:16.729Z,16.43
2019-04-21T01:17:38.830Z,15.20
2019-04-21T01:19:57.453Z,14.30
2019-04-21T01:22:11.585Z,15.47
2019-04-21T01:24:43.353Z,15.63
2019-04-21T01:27:18.527Z,14.30
2019-04-21T01:29:59.833Z,14.17
2019-04-21T01:32:29.638Z,14.90
2019-04-21T01:34:58.224Z,12.70
2019-04-21T01:37:34.412Z,14.67
2019-04-21T01:40:04.714Z,15.13
2019-04-21T01:42:26.586Z,13.80
2019-04-21T01:44:54.858Z,15.73
2019-04-21T01:47:20.479Z,14.47
2019-04-21T01:49:46.644Z,14.00
2019-04-21T01:52:31.643Z,15.30
2019-04-21T01:55:25.132Z,15.00
2019-04-21T01:58:11.346Z,14.07
2019-04-21T02:00:50.170Z,14.40
2019-04-21T02:03:41.720Z,13.60
2019-04-21T02:05:58.656Z,15.63
2019-04-21T02:08:17.695Z,15.83
2019-04-21T02:10:58.771Z,16.27
2019-04-21T02:13:17.098Z,16.10
2019-04-21T02:15:58.152Z,16.10
2019-04-21T02:18:18.147Z,16.53
2019-04-21T02:20:40.150Z,17.00
2019-04-21T02:23:27.924Z,16.33
2019-04-21T02:25:52.619Z,17.17
2019-04-21T02:28:24.803Z,15.30
2019-04-21T02:36:00.653Z,16.03
2019-04-21T02:38:30.747Z,17.55
2019-04-21T02:43:24.927Z,17.00
2019-04-21T02:45:56.639Z,17.03
2019-04-21T02:50:47.218Z,17.80
2019-04-21T02:53:34.743Z,16.77
2019-04-21T02:55:51.185Z,17.20
2019-04-21T02:58:34.423Z,17.10
2019-04-21T03:04:13.256Z,15.48
2019-04-21T03:17:17.380Z,17.67
2019-04-21T03:22:12.977Z,18.02
2019-04-21T03:24:53.507Z,16.30
2019-04-21T03:27:21.038Z,16.17
2019-04-21T03:32:39.928Z,15.08
2019-04-21T03:37:07.698Z,16.20
2019-04-21T03:39:45.502Z,16.15
2019-04-21T03:42:21.472Z,16.87
2019-04-21T03:44:37.302Z,16.75
2019-04-21T03:49:54.758Z,18.52
2019-04-21T03:52:11.533Z,16.82
2019-04-21T03:54:49.251Z,17.40
2019-04-21T03:59:36.487Z,17.48
2019-04-21T04:02:36.910Z,17.90
2019-04-21T04:05:03.693Z,16.10
2019-04-21T04:10:08.194Z,17.32
2019-04-21T04:12:36.564Z,17.50
2019-04-21T04:15:20.550Z,16.87
2019-04-21T04:17:32.959Z,16.65
2019-04-21T04:20:04.048Z,18.55
2019-04-21T04:25:07.386Z,15.58
2019-04-21T04:30:07.560Z,17.00
2019-04-21T04:40:14.569Z,18.32
2019-04-21T04:43:11.799Z,16.35
2019-04-21T04:45:38.460Z,16.35
2019-04-21T04:48:05.799Z,15.90
2019-04-21T04:50:40.581Z,17.30
2019-04-21T04:55:43.394Z,17.17
2019-04-21T04:58:18.656Z,16.32
2019-04-21T05:01:02.474Z,16.85
2019-04-21T05:03:00.988Z,16.80
2019-04-21T05:06:05.179Z,16.00
2019-04-21T05:08:08.338Z,17.02
2019-04-21T05:10:52.887Z,15.30
2019-04-21T05:12:56.977Z,16.05
2019-04-21T05:15:37.740Z,15.10
2019-04-21T05:17:57.885Z,16.73
2019-04-21T05:20:26.055Z,15.43
2019-04-21T05:22:54.299Z,16.05
2019-04-21T05:25:19.574Z,16.25
2019-04-21T05:27:46.987Z,17.27
2019-04-21T05:30:45.070Z,18.12
2019-04-21T05:33:29.259Z,21.40
2019-04-21T05:36:04.312Z,23.52
2019-04-21T05:38:40.695Z,22.77
2019-04-21T05:41:02.380Z,20.43
2019-04-21T05:43:39.834Z,19.27
2019-04-21T05:46:13.381Z,18.20
2019-04-21T05:48:48.422Z,18.10
2019-04-21T05:51:11.775Z,16.93
2019-04-21T05:53:42.467Z,16.23
2019-04-21T05:56:19.191Z,16.40
2019-04-21T05:58:43.486Z,15.30
2019-04-21T06:11:13.220Z,15.30
2019-04-21T06:16:12.036Z,14.13
2019-04-21T06:21:10.801Z,13.47
2019-04-21T06:23:51.549Z,14.83
2019-04-21T06:28:40.172Z,14.17
2019-04-21T06:31:12.596Z,14.00
2019-04-21T06:33:43.223Z,13.53
2019-04-21T06:39:00.327Z,13.73
2019-04-21T06:41:29.668Z,14.37
2019-04-21T06:43:56.657Z,14.70
2019-04-21T06:46:26.365Z,15.60
2019-04-21T06:48:49.827Z,14.20
2019-04-21T06:51:22.461Z,14.90
2019-04-21T06:53:57.842Z,14.70
2019-04-21T06:56:13.741Z,14.53
2019-04-21T06:58:43.641Z,15.03
2019-04-21T07:01:18.577Z,15.03
2019-04-21T07:03:48.768Z,14.83
2019-04-21T07:06:12.637Z,15.10
2019-04-21T07:08:54.937Z,15.50
2019-04-21T07:11:08.433Z,14.80
2019-04-21T07:13:38.829Z,14.37
2019-04-21T07:16:15.668Z,14.73
2019-04-21T07:18:41.588Z,15.23
2019-04-21T07:21:06.503Z,15.70
2019-04-21T07:23:47.517Z,15.00
2019-04-21T07:26:15.663Z,14.40
2019-04-21T07:28:45.950Z,14.03
2019-04-21T07:31:14.127Z,15.13
2019-04-21T07:33:53.914Z,14.93
2019-04-21T07:36:01.336Z,14.27
2019-04-21T07:38:36.576Z,13.97
2019-04-21T07:40:59.585Z,15.53
2019-04-21T07:43:31.547Z,13.53
2019-04-21T07:45:58.608Z,15.10
2019-04-21T07:48:40.119Z,14.40
2019-04-21T07:51:32.220Z,13.90
2019-04-21T07:54:04.640Z,13.27
2019-04-21T07:56:16.618Z,14.63
2019-04-21T07:59:05.588Z,13.63
2019-04-21T08:01:30.834Z,14.07
2019-04-21T08:04:03.741Z,13.83
2019-04-21T08:06:38.744Z,13.20
2019-04-21T08:08:53.520Z,13.37
2019-04-21T08:11:19.715Z,14.50
2019-04-21T08:13:55.235Z,13.77
2019-04-21T08:16:24.397Z,13.50
2019-04-21T08:18:51.921Z,13.63
2019-04-21T08:21:24.697Z,13.20
2019-04-21T08:23:47.940Z,13.43
2019-04-21T08:26:27.674Z,13.73
2019-04-21T08:28:58.457Z,13.77
2019-04-21T08:31:23.604Z,12.97
2019-04-21T08:33:55.386Z,13.40
2019-04-21T08:41:20.269Z,12.30
2019-04-21T08:43:51.376Z,12.77
2019-04-21T08:46:19.858Z,12.00
2019-04-21T08:48:54.278Z,12.27
2019-04-21T08:53:53.672Z,12.70
2019-04-21T08:56:34.210Z,11.90
2019-04-21T08:59:28.864Z,12.57
2019-04-21T09:02:01.395Z,11.97
2019-04-21T09:04:28.551Z,13.20
2019-04-21T09:07:21.355Z,11.83
2019-04-21T09:09:34.019Z,12.60
2019-04-21T09:11:59.692Z,11.73
2019-04-21T09:14:33.524Z,11.57
2019-04-21T09:16:56.754Z,11.43
2019-04-21T09:19:39.806Z,11.07
2019-04-21T09:22:03.869Z,12.27
2019-04-21T09:24:28.814Z,11.03
2019-04-21T09:26:58.036Z,11.27
2019-04-21T09:29:18.023Z,10.30
2019-04-21T09:31:41.825Z,10.40
2019-04-21T09:34:08.946Z,10.70
2019-04-21T09:36:43.100Z,11.57
2019-04-21T09:39:15.051Z,12.07
2019-04-21T09:41:41.086Z,11.40
2019-04-21T09:44:17.150Z,11.17
2019-04-21T09:46:44.443Z,11.57
2019-04-21T09:49:12.596Z,10.87
2019-04-21T09:51:37.616Z,11.80
2019-04-21T09:54:10.392Z,11.37
2019-04-21T09:56:46.239Z,11.53
2019-04-21T09:59:14.939Z,10.47
2019-04-21T10:01:50.038Z,10.67
2019-04-21T10:04:05.494Z,11.00
2019-04-21T10:06:33.051Z,8.77
2019-04-21T10:09:04.162Z,8.70
2019-04-21T10:11:31.114Z,8.20
2019-04-21T10:13:58.924Z,7.97
2019-04-21T10:16:45.067Z,8.23
2019-04-21T10:19:13.208Z,9.23
2019-04-21T10:21:42.328Z,8.90
2019-04-21T10:24:10.552Z,8.13
2019-04-21T10:26:38.465Z,8.73
2019-04-21T10:29:13.050Z,7.53
2019-04-21T10:31:36.678Z,8.43
2019-04-21T10:34:05.292Z,6.63
2019-04-21T10:36:33.232Z,8.27
2019-04-21T10:39:02.303Z,6.97
2019-04-21T10:41:29.994Z,7.50
2019-04-21T10:43:58.917Z,7.60
2019-04-21T10:46:26.745Z,8.17
2019-04-21T10:48:56.802Z,7.60
2019-04-21T10:51:32.873Z,7.97
2019-04-21T10:54:03.978Z,7.80
2019-04-21T10:56:37.094Z,8.30
2019-04-21T10:59:10.237Z,7.53
2019-04-21T11:01:38.989Z,7.27
2019-04-21T11:04:31.379Z,7.97
2019-04-21T11:07:04.324Z,8.00
2019-04-21T11:09:26.338Z,8.17
2019-04-21T11:11:55.626Z,8.13
2019-04-21T11:14:23.493Z,7.53
2019-04-21T11:16:52.916Z,8.43
2019-04-21T11:19:20.558Z,7.40
2019-04-21T11:21:49.307Z,8.70
2019-04-21T11:24:18.117Z,8.57
2019-04-21T11:26:46.021Z,7.93
2019-04-21T11:29:14.958Z,7.23
2019-04-21T11:31:43.115Z,7.80
2019-04-21T11:34:11.304Z,9.20
2019-04-21T11:36:40.388Z,8.13
2019-04-21T11:39:39.300Z,8.00
2019-04-21T11:41:59.673Z,7.67
2019-04-21T11:44:28.919Z,7.37
2019-04-21T11:46:56.689Z,8.30
2019-04-21T11:49:27.096Z,8.60
2019-04-21T11:51:55.115Z,7.43
2019-04-21T11:54:24.619Z,7.77
2019-04-21T11:56:52.881Z,7.77
2019-04-21T11:59:21.775Z,7.80
2019-04-21T12:01:54.035Z,7.03
2019-04-21T12:04:23.330Z,8.40
2019-04-21T12:06:52.485Z,7.53
2019-04-21T12:09:20.990Z,7.60
2019-04-21T12:11:49.378Z,7.97
2019-04-21T12:14:18.329Z,7.90
2019-04-21T12:16:46.775Z,7.60
2019-04-21T12:19:14.639Z,7.40
2019-04-21T12:21:53.304Z,7.53
2019-04-21T12:24:13.160Z,7.10
2019-04-21T12:26:42.166Z,7.53
2019-04-21T12:29:10.052Z,7.57
2019-04-21T12:31:54.847Z,7.03
2019-04-21T12:34:23.690Z,7.00
2019-04-21T12:36:52.711Z,7.33
2019-04-21T12:39:20.863Z,6.90
2019-04-21T12:41:48.901Z,6.33
2019-04-21T12:44:16.626Z,6.43
2019-04-21T12:46:45.549Z,6.13
2019-04-21T12:49:13.801Z,7.20
2019-04-21T12:51:41.866Z,7.33
2019-04-21T12:54:09.982Z,6.90
2019-04-21T12:56:37.979Z,6.50
2019-04-21T12:59:05.680Z,7.07
2019-04-21T13:01:33.304Z,7.73
2019-04-21T13:04:01.834Z,7.67
2019-04-21T13:06:29.730Z,6.77
2019-04-21T13:09:03.375Z,7.53
2019-04-21T13:11:26.912Z,7.47
2019-04-21T13:13:55.740Z,6.63
2019-04-21T13:16:23.499Z,8.33
2019-04-21T13:18:51.286Z,7.80
2019-04-21T13:21:20.139Z,8.00
2019-04-21T13:23:49.132Z,7.37
2019-04-21T13:26:27.609Z,8.20
2019-04-21T13:28:47.924Z,8.03
2019-04-21T13:31:16.163Z,7.37
2019-04-21T13:33:44.197Z,6.67
2019-04-21T13:36:11.899Z,7.37
2019-04-21T13:39:31.489Z,7.60
2019-04-21T13:41:41.295Z,7.57
2019-04-21T13:44:13.276Z,7.63
2019-04-21T13:46:42.975Z,7.63
2019-04-21T13:49:11.591Z,7.77
2019-04-21T13:51:39.268Z,8.30
2019-04-21T13:54:07.364Z,7.57
2019-04-21T13:56:36.340Z,6.30
2019-04-21T13:59:04.386Z,7.43
2019-04-21T14:01:32.220Z,7.43
2019-04-21T14:03:59.851Z,6.70
2019-04-21T14:06:27.630Z,7.07
2019-04-21T14:08:55.289Z,7.03
2019-04-21T14:11:23.151Z,6.90
2019-04-21T14:13:52.003Z,6.80
2019-04-21T14:16:20.317Z,7.47
2019-04-21T14:18:48.022Z,6.57
2019-04-21T14:21:15.661Z,6.83
2019-04-21T14:23:47.428Z,6.43
2019-04-21T14:26:14.197Z,7.07
2019-04-21T14:28:43.024Z,6.20
2019-04-21T14:31:10.701Z,6.87
2019-04-21T14:33:38.404Z,6.43
2019-04-21T14:36:06.040Z,5.93
2019-04-21T14:38:34.476Z,6.17
2019-04-21T14:41:02.403Z,6.17
2019-04-21T14:43:30.157Z,6.53
2019-04-21T14:46:02.870Z,6.97
2019-04-21T14:49:03.412Z,6.67
2019-04-21T14:51:41.118Z,6.87
2019-04-21T14:54:38.402Z,7.70
2019-04-21T14:57:07.199Z,6.90
2019-04-21T14:59:35.231Z,6.63
2019-04-21T15:02:03.892Z,7.43
2019-04-21T15:04:33.362Z,6.33
2019-04-21T15:07:01.402Z,6.70
2019-04-21T15:09:29.471Z,7.30
2019-04-21T15:11:58.195Z,6.87
2019-04-21T15:14:26.245Z,6.27
2019-04-21T15:16:54.548Z,6.83
2019-04-21T15:19:22.501Z,6.70
2019-04-21T15:21:50.511Z,8.13
2019-04-21T15:24:18.379Z,6.47
2019-04-21T15:26:46.441Z,6.37
2019-04-21T15:29:15.084Z,6.70
2019-04-21T15:31:44.808Z,6.50
2019-04-21T15:34:13.121Z,6.43
2019-04-21T15:36:41.924Z,7.43
2019-04-21T15:39:10.057Z,7.20
2019-04-21T15:41:38.570Z,8.07
2019-04-21T15:44:08.275Z,7.67
2019-04-21T15:46:37.592Z,7.03
2019-04-21T15:49:09.170Z,7.97
2019-04-21T15:51:37.997Z,7.60
2019-04-21T15:54:06.818Z,7.03
2019-04-21T15:56:42.618Z,6.53
2019-04-21T15:59:44.885Z,6.87
2019-04-21T16:02:30.678Z,7.10
2019-04-21T16:04:59.018Z,6.47
2019-04-21T16:07:26.707Z,6.60
2019-04-21T16:09:55.123Z,7.70
2019-04-21T16:12:22.776Z,7.87
2019-04-21T16:14:50.466Z,7.37
2019-04-21T16:17:19.230Z,7.23
2019-04-21T16:19:48.029Z,7.40
2019-04-21T16:22:16.810Z,7.27
2019-04-21T16:24:46.059Z,8.10
2019-04-21T16:27:15.294Z,8.37
2019-04-21T16:29:43.865Z,7.83
2019-04-21T16:32:14.615Z,7.40
2019-04-21T16:34:48.988Z,6.90
2019-04-21T16:37:11.832Z,6.47
2019-04-21T16:39:39.590Z,6.43
2019-04-21T16:42:08.489Z,6.77
2019-04-21T16:44:38.889Z,7.67
2019-04-21T16:47:07.660Z,9.47
2019-04-21T16:49:35.827Z,7.20
2019-04-21T16:52:20.389Z,8.03
2019-04-21T16:54:51.869Z,7.10
2019-04-21T16:57:28.057Z,7.30
2019-04-21T17:00:00.255Z,9.20
2019-04-21T17:02:28.374Z,8.37
2019-04-21T17:04:56.305Z,7.57
2019-04-21T17:07:26.280Z,6.30
2019-04-21T17:09:54.888Z,6.23
2019-04-21T17:12:24.066Z,5.93
2019-04-21T17:15:08.830Z,5.57
2019-04-21T17:17:43.025Z,6.10
2019-04-21T17:19:54.201Z,5.87
2019-04-21T17:22:21.777Z,5.73
2019-04-21T17:24:50.509Z,6.10
2019-04-21T17:27:20.751Z,5.70
2019-04-21T17:29:48.672Z,6.73
2019-04-21T17:32:18.258Z,6.33
2019-04-21T17:34:46.188Z,6.40
2019-04-21T17:37:15.146Z,6.53
2019-04-21T17:39:43.052Z,6.27
2019-04-21T17:42:18.581Z,5.80
2019-04-21T17:44:41.269Z,5.50
2019-04-21T17:47:20.076Z,5.93
2019-04-21T17:49:39.269Z,5.90
2019-04-21T17:52:30.298Z,8.30
2019-04-21T17:55:20.977Z,8.10
2019-04-21T17:57:57.048Z,9.53
2019-04-21T18:00:49.374Z,7.30
2019-04-21T18:03:02.018Z,6.60
2019-04-21T18:05:36.308Z,6.60
2019-04-21T18:07:54.371Z,5.53
2019-04-21T18:10:29.006Z,5.73
2019-04-21T18:12:52.370Z,5.93
2019-04-21T18:15:34.007Z,5.60
2019-04-21T18:17:40.399Z,6.70
2019-04-21T18:20:10.006Z,5.93
2019-04-21T18:22:53.200Z,6.70
2019-04-21T18:25:31.740Z,6.07
2019-04-21T18:27:52.602Z,5.70
2019-04-21T18:30:46.896Z,6.20
2019-04-21T18:33:22.192Z,6.50
2019-04-21T18:36:04.625Z,6.80
2019-04-21T18:39:04.462Z,6.67
2019-04-21T18:41:17.421Z,7.40
2019-04-21T18:44:17.701Z,6.87
2019-04-21T18:46:55.412Z,6.80
2019-04-21T18:49:09.179Z,7.37
2019-04-21T18:52:02.233Z,7.53
2019-04-21T18:54:41.441Z,8.30
2019-04-21T18:57:04.496Z,8.00
2019-04-21T18:59:31.325Z,8.77
2019-04-21T19:01:59.711Z,8.47
2019-04-21T19:04:27.412Z,7.60
2019-04-21T19:07:10.840Z,7.53
2019-04-21T19:09:59.409Z,7.90
2019-04-21T19:12:16.736Z,7.53
2019-04-21T19:14:52.126Z,7.90
2019-04-21T19:17:39.679Z,8.77
2019-04-21T19:22:23.192Z,8.00
2019-04-21T19:24:55.230Z,7.17
2019-04-21T19:29:31.878Z,7.73
2019-04-21T19:32:11.947Z,7.93
2019-04-21T19:34:23.714Z,7.60
2019-04-21T19:36:52.007Z,7.67
2019-04-21T19:39:33.860Z,7.53
2019-04-21T19:41:58.395Z,6.53
2019-04-21T19:44:36.987Z,7.73
2019-04-21T19:47:03.897Z,7.60
2019-04-21T19:49:32.073Z,7.40
2019-04-21T19:51:52.282Z,7.40
2019-04-21T19:54:22.101Z,6.77
2019-04-21T19:56:42.650Z,7.50
2019-04-21T19:59:18.026Z,7.10
2019-04-21T20:01:41.353Z,7.40
2019-04-21T20:04:10.435Z,7.57
2019-04-21T20:06:49.793Z,7.27
2019-04-21T20:09:27.690Z,7.70
2019-04-21T20:11:55.503Z,7.50
2019-04-21T20:16:50.384Z,7.40
2019-04-21T20:19:11.633Z,7.77
2019-04-21T20:21:35.790Z,7.77
2019-04-21T20:24:10.676Z,7.33
2019-04-21T20:26:37.957Z,6.47
2019-04-21T20:29:20.156Z,7.37
2019-04-21T20:31:49.012Z,7.17
2019-04-21T20:34:29.823Z,7.77
2019-04-21T20:36:51.860Z,7.00
2019-04-21T20:39:08.322Z,6.87
2019-04-21T20:41:41.973Z,7.57
2019-04-21T20:44:18.426Z,7.50
2019-04-21T20:46:45.132Z,7.50
2019-04-21T20:49:14.419Z,7.63
2019-04-21T20:51:42.566Z,7.47
2019-04-21T20:54:15.993Z,6.67
2019-04-21T20:56:45.212Z,6.83
2019-04-21T20:59:11.921Z,7.20
2019-04-21T21:01:44.400Z,7.77
2019-04-21T21:04:12.962Z,7.03
2019-04-21T21:06:43.838Z,7.13
2019-04-21T21:09:10.157Z,7.40
2019-04-21T21:11:46.723Z,6.83
2019-04-21T21:14:11.806Z,7.03
2019-04-21T21:16:47.603Z,7.03
2019-04-21T21:19:18.935Z,7.17
2019-04-21T21:21:38.429Z,7.43
2019-04-21T21:24:09.692Z,6.60
2019-04-21T21:26:36.701Z,7.70
2019-04-21T21:28:58.773Z,6.90
2019-04-21T21:31:38.401Z,7.10
2019-04-21T21:34:10.041Z,6.90
2019-04-21T21:36:39.816Z,7.20
2019-04-21T21:39:08.772Z,6.60
2019-04-21T21:41:28.865Z,7.20
2019-04-21T21:43:56.915Z,6.43
2019-04-21T21:46:35.160Z,7.00
2019-04-21T21:48:59.354Z,7.23
2019-04-21T21:51:28.999Z,7.03
2019-04-21T21:53:46.417Z,6.97
2019-04-21T21:56:14.562Z,7.60
2019-04-21T21:58:44.234Z,7.10
2019-04-21T22:01:14.857Z,7.13
2019-04-21T22:03:46.577Z,7.33
2019-04-21T22:06:17.574Z,7.03
2019-04-21T22:08:42.556Z,7.50
2019-04-21T22:11:10.940Z,6.77
2019-04-21T22:13:47.491Z,6.80
2019-04-21T22:16:13.557Z,6.67
2019-04-21T22:19:01.558Z,7.00
2019-04-21T22:21:18.786Z,6.70
2019-04-21T22:23:47.818Z,6.43
2019-04-21T22:26:07.280Z,6.33
2019-04-21T22:28:35.969Z,6.47
2019-04-21T22:31:11.734Z,6.57
2019-04-21T22:33:41.871Z,6.30
2019-04-21T22:36:18.009Z,6.57
2019-04-21T22:38:46.405Z,6.00
2019-04-21T22:41:14.404Z,5.30
2019-04-21T22:43:36.483Z,6.23
2019-04-21T22:46:01.253Z,6.97
2019-04-21T22:48:29.373Z,6.30
2019-04-21T22:50:58.378Z,6.67
2019-04-21T22:53:29.240Z,6.60
2019-04-21T22:56:00.558Z,6.73
2019-04-21T22:58:31.720Z,6.30
2019-04-21T23:00:58.610Z,6.43
2019-04-21T23:03:25.238Z,6.67
2019-04-21T23:05:53.743Z,6.83
2019-04-21T23:08:26.597Z,7.60
2019-04-21T23:10:59.257Z,6.43
2019-04-21T23:13:23.491Z,6.93
2019-04-21T23:15:55.580Z,6.63
2019-04-21T23:18:37.459Z,6.77
2019-04-21T23:21:08.487Z,7.30
2019-04-21T23:23:42.263Z,6.93
2019-04-21T23:26:09.134Z,6.33
2019-04-21T23:28:42.223Z,7.53
2019-04-21T23:31:06.405Z,7.17
2019-04-21T23:33:19.558Z,6.83
2019-04-21T23:35:49.041Z,7.33
2019-04-21T23:38:16.491Z,7.87
2019-04-21T23:40:47.595Z,7.67
2019-04-21T23:43:20.529Z,7.40
2019-04-21T23:45:46.247Z,7.17
2019-04-21T23:48:26.028Z,8.00
2019-04-21T23:50:51.196Z,6.40
2019-04-21T23:53:13.130Z,7.40
2019-04-21T23:55:41.176Z,7.53
2019-04-21T23:58:16.392Z,8.40
